Tropical Cyclones
[Index]
Main Index Home Page Stock Weather Photos Extreme Storms Discussion Storm News and Storm Chasing Reports Tropical Cyclones / Hurricanes / Typhoons Weather Data and Links Wild Fires / Bushfires Weather Observation Techniques Weather Picture Catalogue Tornado Pictures and Reports Stock Video Footage and DVDs for sale
Season 2008-2009 Tropical Cyclone JASPER Track Map
Season 2008-2009 Summaries (Operational Data): [AU] [SIO] [SPAC] [SH]
<<- Previous TC | 2008-2009 Season | Next TC ->>

click for intensity scale information  Lat/long Grid: Show Hide

 Date Labels: Show Hide

Operational Tropical Cyclone Data : JTWC Advisories

Name: JASPER
Number: 0923

22 Mar 2009 18:00 UTC to 26 Mar 2009 18:00 UTC

    date/time    lat    long     hPa   cat  kts
2009-03-22 18   14.1   154.0    1001         30          
2009-03-23 04   14.7   153.5    1001         30          
2009-03-23 07   16.3   155.5    1001         30          
2009-03-23 12   17.0   156.0    1003         30          
2009-03-23 18   17.6   158.0     995    1    40          
2009-03-23 22   17.3   158.7     985    2    50          
2009-03-24 00   17.3   159.2                             
2009-03-24 04   18.7   160.1     985    2    50          
2009-03-24 06   19.2   160.4     980    2    55          
2009-03-24 12   20.1   162.3     980    2    55          
2009-03-24 18   21.3   163.2     980    2    55          
2009-03-25 00   21.2   162.9     987    1    45          
2009-03-25 06   21.2   163.2     995    1    35          
2009-03-25 09   21.3   163.7    1000         30          
2009-03-25 12   21.5   163.6                             
2009-03-25 18   22.5   165.0    1001         30          
2009-03-26 00   22.3   164.3    1001         30          
2009-03-26 06   22.3   164.3    1001         30          
2009-03-26 12   20.6   163.3    1003         25          
2009-03-26 18   20.0   163.0    1003         25          
Winds are 10-min average.

Tropical cyclone tracks developed by Michael Bath using operational warnings and advisories and Google Maps.


[Australian Severe Weather index] [Copyright Notice] [Email Contacts] [Search This Site] [Privacy Policy]
Document: tropical_cyclone_jasper.htm Updated: 28 May 2013